Julia — PF5957 — position and weather

sailwx.info

Track history (hours):
 
Tides and Currents Weather Stations Pressure Air Temp Water Temp Dewpoint Dewpoint Depression Visibility Wind Speed Wind Dir Waves Ship Positions

Julia

Last reported at 2018-Jan-31 00:40 UTC. Time now 2018-Feb-21 19:13 UTC.
Position N 28°60' W 013°20'.
Warning: this ship's position is 21 days out of date.

Length 15 m.

Type: Sailing vessel. MMSI: 244180582.

Date/timePositionNaut miles runAvg speedWind from/ knotsBaromVisibWave heightAir tempDewpointWater temp
2018-Jan-31 00:40N 28°60' W 013°20'4 5.2
2018-Jan-30 23:59N 28°60' W 013°25'3 5.7
2018-Jan-30 23:24N 28°59' W 013°28'2 3.9
2018-Jan-30 22:59N 28°58' W 013°30'2 3.8
2018-Jan-30 22:29N 28°58' W 013°32'0 0.0
2018-Jan-30 15:38N 28°58' W 013°32'0 1.8
2018-Jan-30 15:23N 28°58' W 013°32'0 0.0
2018-Jan-29 14:32N 28°58' W 013°32'0 0.0
2018-Jan-29 14:29N 28°58' W 013°32'1 2.2
2018-Jan-29 13:57N 28°58' W 013°31'2 4.9
2018-Jan-29 13:29N 28°59' W 013°29'2 4.8
2018-Jan-29 12:58N 29°01' W 013°27'  
2018-Jan-24 12:00N 29°02' W 013°25'2 3.5
2018-Jan-24 11:28N 29°01' W 013°26'3 5.5
2018-Jan-24 10:57N 28°58' W 013°25'2 4.1
2018-Jan-24 10:23N 28°58' W 013°28'2 4.7
2018-Jan-24 09:59N 28°58' W 013°30'2 3.5
2018-Jan-24 09:29N 28°58' W 013°32'  
Track history (hours):
 
Tides and Currents Weather Stations Pressure Air Temp Water Temp Dewpoint Dewpoint Depression Visibility Wind Speed Wind Dir Waves Ship Positions

Julia

Last reported at 2018-Jan-31 00:40 UTC. Time now 2018-Feb-21 19:13 UTC.
Position N 28°60' W 013°20'.
Warning: this ship's position is 21 days out of date.

Length 15 m.

Type: Sailing vessel. MMSI: 244180582.

Date/timePositionNaut miles runAvg speedWind from/ knotsBaromVisibWave heightAir tempDewpointWater temp
2018-Jan-31 00:40N 28°60' W 013°20'4 5.2
2018-Jan-30 23:59N 28°60' W 013°25'3 5.7
2018-Jan-30 23:24N 28°59' W 013°28'2 3.9
2018-Jan-30 22:59N 28°58' W 013°30'2 3.8
2018-Jan-30 22:29N 28°58' W 013°32'0 0.0
2018-Jan-30 15:38N 28°58' W 013°32'0 1.8
2018-Jan-30 15:23N 28°58' W 013°32'0 0.0
2018-Jan-29 14:32N 28°58' W 013°32'0 0.0
2018-Jan-29 14:29N 28°58' W 013°32'1 2.2
2018-Jan-29 13:57N 28°58' W 013°31'2 4.9
2018-Jan-29 13:29N 28°59' W 013°29'2 4.8
2018-Jan-29 12:58N 29°01' W 013°27'  
2018-Jan-24 12:00N 29°02' W 013°25'2 3.5
2018-Jan-24 11:28N 29°01' W 013°26'3 5.5
2018-Jan-24 10:57N 28°58' W 013°25'2 4.1
2018-Jan-24 10:23N 28°58' W 013°28'2 4.7
2018-Jan-24 09:59N 28°58' W 013°30'2 3.5
2018-Jan-24 09:29N 28°58' W 013°32'  

Dump ship's entire track history